CW5456 Hansville WA US current weather conditions

sailwx.info

Last reported at 2014-May-31 21:31 UTC.
Time now 2015-Mar-04 07:01 UTC

Location: N 47°55' W 122°35'.
View on Google Maps.

See reports from other nearby stations

  
Tides and Currents Weather Stations Pressure Air Temp Water Temp Dewpoint Dewpoint Depression Visibility Wind Speed Wind Dir Waves Ship Positions
date/time (UTC)wind fromknots sea level pressurealtimeterstation pressurevisibilityair tempwater tempwave heightnotes
2015-Mar-04 04:50 317 0 gusting 1 3.9
2015-Mar-04 04:45 317 0 gusting 1 4.4
2015-Mar-04 04:35 317 4.4
2015-Mar-04 04:30 317 0 gusting 0 4.4
2015-Mar-04 04:25 317 4.4
2015-Mar-04 04:10 317 4.4
2015-Mar-04 04:00 317 4.4
2015-Mar-04 03:55 317 1 gusting 2 4.4
2015-Mar-04 03:30 317 5.0
2015-Mar-04 03:25 317 5.0
2015-Mar-04 03:20 317 5.0
2015-Mar-04 03:15 317 4.4
2015-Mar-04 03:10 317 4.4
2015-Mar-04 03:05 317 5.0
2015-Mar-04 03:00 317 0 gusting 1 5.0
2015-Mar-04 02:55 317 5.0
2015-Mar-04 02:50 317 5.0
2015-Mar-04 02:45 317 0 gusting 1 5.0
2015-Mar-04 02:30 317 1 gusting 1 5.0
2015-Mar-04 02:15 317 1 gusting 1 5.6
2015-Mar-04 02:00 319 1 gusting 3 6.7
2015-Mar-04 01:55 323 1 gusting 3 6.7
2015-Mar-04 01:50 333 7.2
2015-Mar-04 01:40 304 8.3
2015-Mar-04 01:35 338 7 gusting 10 8.3
2015-Mar-04 01:30 360 3 gusting 10 8.3
2015-Mar-04 01:25 011 6 gusting 11 8.3
2015-Mar-04 01:15 336 6 gusting 10 8.3
2015-Mar-04 01:10 355 6 gusting 9 8.3
2015-Mar-04 01:05 350 3 gusting 9 8.3
2015-Mar-04 00:55 355 6 gusting 10 8.3
2015-Mar-04 00:50 360 7 gusting 10 8.3
2015-Mar-04 00:45 321 3 gusting 9 8.3
2015-Mar-04 00:25 360 6 gusting 12 8.3
2015-Mar-04 00:20 345 8 gusting 12 8.3
2015-Mar-04 00:15 327 8 gusting 12 8.3
2015-Mar-03 23:55 348 10 gusting 12 8.3
2015-Mar-03 23:50 348 6 gusting 13 8.3
2015-Mar-03 23:45 341 6 gusting 13 8.3
2015-Mar-03 23:40 010 6 gusting 12 8.3
2015-Mar-03 23:35 355 8 gusting 13 8.3
2015-Mar-03 23:05 005 6 gusting 11 8.3
2015-Mar-03 22:40 350 9 gusting 13 8.3
2015-Mar-03 22:20 341 9 gusting 13 7.8
2015-Mar-03 22:10 316 6 gusting 12 7.8
2015-Mar-03 21:55 340 11 gusting 14 7.8
2015-Mar-03 21:40 009 10 gusting 12 7.8
2015-Mar-03 21:30 005 7 gusting 14 7.8
2015-Mar-03 21:25 005 13 gusting 14 7.8
2015-Mar-03 21:09 005 9 gusting 16 7.8
2015-Mar-03 20:44 005 13 gusting 15 7.2
2015-Mar-03 20:34 005 13 gusting 15 7.2
2015-Mar-03 20:19 009 13 gusting 15 7.2
2015-Mar-03 19:59 005 13 gusting 16 7.2
2015-Mar-03 19:39 005 13 gusting 15 7.2
2015-Mar-03 19:34 360 11 gusting 16 7.2
2015-Mar-03 19:29 015 11 gusting 16 7.2
2015-Mar-03 19:14 345 10 gusting 14 7.2
2015-Mar-03 19:04 360 9 gusting 15 7.2
2015-Mar-03 18:59 360 9 gusting 15 7.2
2015-Mar-03 18:54 009 6 gusting 15 7.2
2015-Mar-03 18:39 355 9 gusting 15 7.2
2015-Mar-03 18:04 344 8 gusting 13 6.7
2015-Mar-03 17:34 349 12 gusting 16 6.7
2015-Mar-03 17:29 355 7 gusting 17 6.7
2015-Mar-03 17:19 338 13 gusting 18 6.7
2015-Mar-03 17:14 360 7 gusting 18 6.7
2015-Mar-03 17:04 334 14 gusting 16 6.7
2015-Mar-03 16:59 341 11 gusting 16 6.7
2015-Mar-03 16:49 348 8 gusting 16 6.7
2015-Mar-03 16:24 360 10 gusting 15 6.1
2015-Mar-03 16:20 355 9 gusting 16 6.1
2015-Mar-03 16:15 342 13 gusting 16 6.1
2015-Mar-03 16:10 345 13 gusting 15 6.1
2015-Mar-03 15:55 319 3 gusting 11 5.0
2015-Mar-03 15:49 298 2 gusting 9 3.9
2015-Mar-03 15:44 338 6 gusting 8 3.9
2015-Mar-03 15:35 327 2 gusting 6 3.3
2015-Mar-03 15:30 360 3.3
2015-Mar-03 15:14 015 0 gusting 6 2.8
2015-Mar-03 15:10 015 2.8
2015-Mar-03 14:40 336 3.9
2015-Mar-03 14:30 336 0 gusting 6 4.4
2015-Mar-03 14:20 342 4.4
2015-Mar-03 14:04 269 4.4
2015-Mar-03 13:55 300 0 gusting 9 5.0
2015-Mar-03 13:35 330 3 gusting 11 5.0
2015-Mar-03 13:20 325 5.6
2015-Mar-03 13:10 333 6 gusting 10 6.1
2015-Mar-03 13:00 342 8 gusting 15 6.1
2015-Mar-03 12:55 344 9 gusting 13 6.1
2015-Mar-03 12:50 360 6 gusting 12 6.1
2015-Mar-03 12:35 056 2 gusting 9 6.1
2015-Mar-03 12:25 345 7 gusting 12 6.1
2015-Mar-03 12:20 280 6.7
2015-Mar-03 12:05 339 14 gusting 14 6.1
2015-Mar-03 12:00 281 6 gusting 11 6.1
2015-Mar-03 11:35 355 8 gusting 9 5.6
2015-Mar-03 11:30 005 0 gusting 9 5.6
2015-Mar-03 11:20 294 3 gusting 6 5.6
2015-Mar-03 11:15 267 5.6
2015-Mar-03 11:05 018 6.1
2015-Mar-03 11:00 255 1 gusting 16 6.7
2015-Mar-03 10:50 321 1 gusting 10 6.1
2015-Mar-03 10:35 340 6 gusting 14 7.2
2015-Mar-03 10:20 341 1 gusting 8 6.1
2015-Mar-03 10:15 337 0 gusting 9 6.1
2015-Mar-03 10:05 309 1 gusting 5 5.0
2015-Mar-03 09:55 288 1 gusting 7 5.6
2015-Mar-03 09:50 244 5.6
2015-Mar-03 09:45 313 1 gusting 3 5.6
2015-Mar-03 09:35 176 6.7
2015-Mar-03 09:30 005 7.2
2015-Mar-03 09:20 319 2 gusting 9 6.7
2015-Mar-03 09:15 299 6.7
2015-Mar-03 08:55 349 10 gusting 11 6.1
2015-Mar-03 08:50 284 6.1
2015-Mar-03 08:45 281 1 gusting 9 6.1
2015-Mar-03 08:35 314 0 gusting 7 6.7
2015-Mar-03 08:30 295 1 gusting 7 6.7
2015-Mar-03 08:25 262 1 gusting 6 6.7
2015-Mar-03 08:20 290 2 gusting 6 6.7
2015-Mar-03 08:15 196 1 gusting 7 7.2
2015-Mar-03 08:05 315 2 gusting 8 7.2
2015-Mar-03 07:45 316 2 gusting 7 7.2
2015-Mar-03 07:35 292 1 gusting 10 7.2
2015-Mar-03 07:30 290 7.2
2015-Mar-03 07:20 287 6 gusting 13 7.8
2015-Mar-03 07:10 319 9 gusting 12 7.8
2015-Mar-03 07:00 306 9 gusting 14 7.8
2015-Mar-03 06:50 318 6 gusting 14 7.8
2015-Mar-03 06:45 294 3 gusting 14 7.8
2015-Mar-03 06:40 325 10 gusting 12 8.3
2015-Mar-03 06:20 252 1 gusting 14 7.8
2015-Mar-03 06:10 336 2 gusting 14 8.3
2015-Mar-03 05:55 341 3 gusting 16 8.3
2015-Mar-03 05:50 312 6 gusting 16 8.3
2015-Mar-03 05:35 309 5 gusting 17 8.3
2015-Mar-03 05:25 339 13 gusting 17 8.3
2015-Mar-03 05:20 313 9 gusting 17 8.3
2015-Mar-03 04:50 307 1 gusting 12 8.3
2015-Mar-03 04:04 325 12 gusting 19 8.9
2015-Mar-03 03:59 307 6 gusting 14 8.9
2015-Mar-03 03:39 330 8 gusting 18 8.9
2015-Mar-03 03:34 333 12 gusting 14 8.3
2015-Mar-03 03:19 273 0 gusting 14 8.9
2015-Mar-03 02:44 310 10 gusting 15 8.9
2015-Mar-03 02:34 349 1 gusting 16 8.9
2015-Mar-03 02:24 342 12 gusting 15 8.9
2015-Mar-03 02:05 306 7 gusting 14 8.9
2015-Mar-03 01:59 349 0 gusting 12 8.9
2015-Mar-03 01:54 304 6 gusting 12 8.9
2015-Mar-03 01:34 360 3 gusting 14 8.9
2015-Mar-03 01:20 344 18 gusting 19 9.4
2015-Mar-03 01:00 323 1 gusting 16 9.4
2015-Mar-03 00:54 330 12 gusting 16 9.4
2015-Mar-03 00:15 302 3 gusting 19 9.4
2015-Mar-02 23:50 310 12 gusting 16 9.4
2015-Mar-02 23:45 320 5 gusting 16 9.4
2015-Mar-02 23:34 306 7 gusting 15 9.4
2015-Mar-02 23:29 290 5 gusting 14 9.4
2015-Mar-02 23:24 316 12 gusting 16 9.4
2015-Mar-02 23:20 292 3 gusting 18 9.4
2015-Mar-02 23:04 338 6 gusting 21 9.4
2015-Mar-02 22:50 032 6 gusting 16 9.4
2015-Mar-02 22:40 013 9 gusting 17 9.4
2015-Mar-02 22:35 326 6 gusting 18 9.4
2015-Mar-02 22:20 005 13 gusting 18 8.9
2015-Mar-02 22:15 313 6 gusting 16 8.9
2015-Mar-02 22:09 326 16 gusting 16 8.9
2015-Mar-02 22:05 333 6 gusting 18 8.9
2015-Mar-02 22:00 011 6 gusting 19 8.9
2015-Mar-02 21:50 310 7 gusting 21 8.9
2015-Mar-02 21:40 349 7 gusting 24 8.9
2015-Mar-02 21:35 317 11 gusting 24 8.9
2015-Mar-02 21:30 340 19 gusting 21 8.9
2015-Mar-02 21:25 319 10 gusting 25 8.9
2015-Mar-02 21:20 321 14 gusting 25 8.9
2015-Mar-02 21:10 298 6 gusting 22 8.9
2015-Mar-02 21:00 005 9 gusting 20 8.9
2015-Mar-02 20:50 350 14 gusting 19 8.9
2015-Mar-02 20:45 337 8 gusting 17 8.9
2015-Mar-02 20:40 336 15 gusting 18 8.3
2015-Mar-02 20:35 350 12 gusting 19 8.3
2015-Mar-02 20:30 005 14 gusting 21 8.9
2015-Mar-02 20:25 295 3 gusting 21 8.3
2015-Mar-02 20:20 342 18 gusting 24 8.3
2015-Mar-02 20:05 337 24 gusting 26 8.3
2015-Mar-02 20:00 341 20 gusting 26 8.3
2015-Mar-02 19:55 300 6 gusting 20 8.3
2015-Mar-02 19:50 321 8 gusting 19 8.3
2015-Mar-02 19:45 313 6 gusting 18 8.3
2015-Mar-02 19:35 333 8 gusting 20 8.3
2015-Mar-02 19:25 321 17 gusting 22 8.3
2015-Mar-02 19:20 327 7 gusting 24 7.8
2015-Mar-02 19:15 312 11 gusting 27 7.8
2015-Mar-02 19:10 336 18 gusting 28 7.8
2015-Mar-02 19:00 310 15 gusting 26 7.8
2015-Mar-02 18:55 338 12 gusting 26 7.8
2015-Mar-02 18:40 313 18 gusting 27 7.8
2015-Mar-02 18:35 314 9 gusting 28 7.8
2015-Mar-02 18:20 324 16 gusting 26 7.2
2015-Mar-02 18:10 337 12 gusting 22 7.2
2015-Mar-02 18:05 005 9 gusting 22 7.2
2015-Mar-02 17:55 331 11 gusting 25 7.2
2015-Mar-02 17:40 344 16 gusting 25 7.2
2015-Mar-02 17:35 333 18 gusting 26 7.2
2015-Mar-02 17:25 323 17 gusting 20 7.2
2015-Mar-02 17:15 330 7 gusting 24 7.2
2015-Mar-02 17:10 345 18 gusting 24 7.2
2015-Mar-02 17:00 325 6 gusting 24 7.2
2015-Mar-02 16:50 329 18 gusting 21 7.2
2015-Mar-02 16:25 344 10 gusting 22 7.2
2015-Mar-02 16:15 331 16 gusting 20 7.2
2015-Mar-02 16:05 307 6 gusting 22 7.2
2015-Mar-02 16:00 318 13 gusting 22 6.7
2015-Mar-02 15:50 344 12 gusting 20 6.7
2015-Mar-02 15:40 326 6 gusting 15 6.7
2015-Mar-02 15:35 360 9 gusting 18 6.7
2015-Mar-02 15:25 342 6 gusting 21 6.7
2015-Mar-02 15:20 345 9 gusting 22 6.7
2015-Mar-02 15:15 315 17 gusting 22 6.7
2015-Mar-02 15:10 345 19 gusting 21 6.7
2015-Mar-02 14:50 338 12 gusting 17 6.7
2015-Mar-02 14:45 312 7 gusting 16 6.7
2015-Mar-02 14:40 344 10 gusting 17 6.7
2015-Mar-02 14:35 313 10 gusting 20 6.7
2015-Mar-02 14:10 334 8 gusting 19 6.7
2015-Mar-02 13:50 322 13 gusting 19 6.7
2015-Mar-02 13:30 355 13 gusting 21 6.7
2015-Mar-02 13:25 309 5 gusting 20 6.7
2015-Mar-02 13:15 315 6 gusting 20 6.7
2015-Mar-02 13:10 260 6 gusting 20 6.7
2015-Mar-02 13:00 329 12 gusting 18 6.7
2015-Mar-02 12:45 321 9 gusting 19 6.7
2015-Mar-02 12:39 338 15 gusting 19 6.7
2015-Mar-02 12:34 302 7 gusting 19 6.7
2015-Mar-02 12:29 342 18 gusting 18 6.7
2015-Mar-02 12:25 316 8 gusting 13 6.7
2015-Mar-02 12:09 336 8 gusting 11 6.1
2015-Mar-02 11:34 329 14 gusting 19 6.7
2015-Mar-02 11:24 338 8 gusting 19 6.7
2015-Mar-02 11:19 326 7 gusting 19 6.7
2015-Mar-02 11:09 296 10 gusting 19 6.7
2015-Mar-02 10:59 317 9 gusting 16 6.7
2015-Mar-02 10:54 355 12 gusting 17 6.7
2015-Mar-02 10:44 315 1 gusting 10 6.7
2015-Mar-02 10:39 314 1 gusting 12 6.7
2015-Mar-02 10:24 321 9 gusting 14 6.7
2015-Mar-02 10:19 360 5 gusting 13 6.7
2015-Mar-02 10:14 306 3 gusting 14 6.7
2015-Mar-02 10:09 319 6 gusting 14 6.7
2015-Mar-02 10:04 307 2 gusting 13 6.7
2015-Mar-02 09:59 339 8 gusting 14 6.7
2015-Mar-02 09:54 346 11 gusting 16 6.7
2015-Mar-02 09:49 306 1 gusting 16 6.7
2015-Mar-02 09:24 326 6 gusting 11 6.7
2015-Mar-02 09:19 325 6 gusting 13 6.7
2015-Mar-02 09:04 302 8 gusting 15 6.7
2015-Mar-02 09:00 319 5 gusting 15 6.7
2015-Mar-02 08:49 338 12 gusting 13 6.7
2015-Mar-02 08:44 327 11 gusting 12 6.7
2015-Mar-02 08:39 329 9 gusting 12 6.7
2015-Mar-02 08:29 344 10 gusting 15 6.7
2015-Mar-02 08:14 323 8 gusting 16 6.7
2015-Mar-02 08:04 360 9 gusting 15 6.7
2015-Mar-02 08:00 338 6 gusting 15 6.7
2015-Mar-02 07:54 355 11 gusting 15 6.7
2015-Mar-02 07:35 360 10 gusting 16 7.2
2015-Mar-02 07:25 017 14 gusting 18 7.2
2015-Mar-02 07:20 360 13 gusting 18 7.2
2015-Mar-02 07:09 014 17 gusting 19 7.2
2015-Mar-02 07:00 348 17 gusting 19 7.2